sensor_id;sensor_type;location;lat;lon;timestamp;pressure;altitude;pressure_sealevel;temperature;humidity
68594;BME280;55563;52.416;13.548;2023-02-01T00:00:33;100678.19;;;3.31;100.00
68594;BME280;55563;52.416;13.548;2023-02-01T00:02:35;100676.94;;;3.33;100.00
68594;BME280;55563;52.416;13.548;2023-02-01T00:04:39;100682.31;;;3.38;100.00
68594;BME280;55563;52.416;13.548;2023-02-01T00:06:40;100668.34;;;3.33;100.00
68594;BME280;55563;52.416;13.548;2023-02-01T00:08:41;100680.34;;;3.34;100.00
68594;BME280;55563;52.416;13.548;2023-02-01T00:10:41;100669.69;;;3.42;100.00
68594;BME280;55563;52.416;13.548;2023-02-01T00:12:42;100672.09;;;3.43;100.00
68594;BME280;55563;52.416;13.548;2023-02-01T00:14:43;100678.72;;;3.39;100.00
68594;BME280;55563;52.416;13.548;2023-02-01T00:16:43;100685.28;;;3.42;100.00
68594;BME280;55563;52.416;13.548;2023-02-01T00:18:45;100680.25;;;3.47;100.00
68594;BME280;55563;52.416;13.548;2023-02-01T00:20:46;100680.22;;;3.54;100.00
68594;BME280;55563;52.416;13.548;2023-02-01T00:22:47;100665.47;;;3.47;100.00
68594;BME280;55563;52.416;13.548;2023-02-01T00:24:47;100666.31;;;3.41;100.00
68594;BME280;55563;52.416;13.548;2023-02-01T00:26:48;100690.72;;;3.40;100.00
68594;BME280;55563;52.416;13.548;2023-02-01T00:28:49;100689.06;;;3.46;100.00
68594;BME280;55563;52.416;13.548;2023-02-01T00:30:56;100672.06;;;3.50;100.00
68594;BME280;55563;52.416;13.548;2023-02-01T00:32:57;100691.28;;;3.42;100.00
68594;BME280;55563;52.416;13.548;2023-02-01T00:34:57;100684.31;;;3.36;100.00
68594;BME280;55563;52.416;13.548;2023-02-01T00:36:58;100684.75;;;3.33;100.00
68594;BME280;55563;52.416;13.548;2023-02-01T00:39:00;100681.88;;;3.41;100.00
68594;BME280;55563;52.416;13.548;2023-02-01T00:41:03;100678.91;;;3.38;100.00
68594;BME280;55563;52.416;13.548;2023-02-01T00:43:04;100687.34;;;3.33;100.00
68594;BME280;55563;52.416;13.548;2023-02-01T00:45:06;100688.47;;;3.44;100.00
68594;BME280;55563;52.416;13.548;2023-02-01T00:47:06;100678.81;;;3.51;100.00
68594;BME280;55563;52.416;13.548;2023-02-01T00:49:07;100675.53;;;3.37;100.00
68594;BME280;55563;52.416;13.548;2023-02-01T00:51:12;100688.94;;;3.34;100.00
68594;BME280;55563;52.416;13.548;2023-02-01T00:53:14;100690.94;;;3.32;100.00
68594;BME280;55563;52.416;13.548;2023-02-01T00:55:14;100693.13;;;3.35;100.00
68594;BME280;55563;52.416;13.548;2023-02-01T00:57:15;100690.13;;;3.32;100.00
68594;BME280;55563;52.416;13.548;2023-02-01T00:59:15;100704.19;;;3.24;100.00
68594;BME280;55563;52.416;13.548;2023-02-01T01:01:19;100692.78;;;3.25;100.00
68594;BME280;55563;52.416;13.548;2023-02-01T01:03:20;100700.00;;;3.17;100.00
68594;BME280;55563;52.416;13.548;2023-02-01T01:05:20;100704.00;;;3.19;100.00
68594;BME280;55563;52.416;13.548;2023-02-01T01:07:21;100699.25;;;3.16;100.00
68594;BME280;55563;52.416;13.548;2023-02-01T01:09:21;100717.41;;;3.16;100.00
68594;BME280;55563;52.416;13.548;2023-02-01T01:11:26;100714.81;;;3.16;100.00
68594;BME280;55563;52.416;13.548;2023-02-01T01:13:27;100711.78;;;3.19;100.00
68594;BME280;55563;52.416;13.548;2023-02-01T01:15:28;100705.78;;;3.25;100.00
68594;BME280;55563;52.416;13.548;2023-02-01T01:17:31;100698.38;;;3.22;100.00
68594;BME280;55563;52.416;13.548;2023-02-01T01:19:32;100707.41;;;3.20;100.00
68594;BME280;55563;52.416;13.548;2023-02-01T01:21:33;100712.63;;;3.13;100.00
68594;BME280;55563;52.416;13.548;2023-02-01T01:23:34;100695.25;;;3.07;100.00
68594;BME280;55563;52.416;13.548;2023-02-01T01:25:38;100682.47;;;3.12;100.00
68594;BME280;55563;52.416;13.548;2023-02-01T01:27:39;100671.50;;;3.10;100.00
68594;BME280;55563;52.416;13.548;2023-02-01T01:29:40;100673.72;;;3.06;100.00
68594;BME280;55563;52.416;13.548;2023-02-01T01:31:40;100680.28;;;3.09;100.00
68594;BME280;55563;52.416;13.548;2023-02-01T01:33:41;100678.31;;;3.04;100.00
68594;BME280;55563;52.416;13.548;2023-02-01T01:35:44;100676.69;;;3.10;100.00
68594;BME280;55563;52.416;13.548;2023-02-01T01:37:44;100667.91;;;3.11;100.00
68594;BME280;55563;52.416;13.548;2023-02-01T01:39:45;100663.91;;;3.08;100.00
68594;BME280;55563;52.416;13.548;2023-02-01T01:41:45;100662.91;;;3.10;100.00
68594;BME280;55563;52.416;13.548;2023-02-01T01:44:01;100664.69;;;3.16;100.00
68594;BME280;55563;52.416;13.548;2023-02-01T01:46:02;100658.25;;;3.18;100.00
68594;BME280;55563;52.416;13.548;2023-02-01T01:48:07;100656.50;;;3.12;100.00
68594;BME280;55563;52.416;13.548;2023-02-01T01:50:11;100661.28;;;3.15;100.00
68594;BME280;55563;52.416;13.548;2023-02-01T01:52:13;100658.69;;;3.15;100.00
68594;BME280;55563;52.416;13.548;2023-02-01T01:54:19;100656.25;;;3.20;100.00
68594;BME280;55563;52.416;13.548;2023-02-01T01:56:21;100650.53;;;3.12;100.00
68594;BME280;55563;52.416;13.548;2023-02-01T01:58:26;100647.75;;;3.06;100.00
68594;BME280;55563;52.416;13.548;2023-02-01T02:00:28;100644.72;;;3.16;100.00
68594;BME280;55563;52.416;13.548;2023-02-01T02:02:31;100646.28;;;3.17;100.00
68594;BME280;55563;52.416;13.548;2023-02-01T02:04:32;100649.09;;;3.16;100.00
68594;BME280;55563;52.416;13.548;2023-02-01T02:06:43;100649.72;;;3.11;100.00
68594;BME280;55563;52.416;13.548;2023-02-01T02:08:48;100646.88;;;3.19;100.00
68594;BME280;55563;52.416;13.548;2023-02-01T02:10:50;100651.63;;;3.22;100.00
68594;BME280;55563;52.416;13.548;2023-02-01T02:13:06;100662.09;;;3.16;100.00
68594;BME280;55563;52.416;13.548;2023-02-01T02:15:08;100649.91;;;3.16;100.00
68594;BME280;55563;52.416;13.548;2023-02-01T02:17:22;100645.66;;;3.22;100.00
68594;BME280;55563;52.416;13.548;2023-02-01T02:20:04;100644.88;;;3.21;100.00
68594;BME280;55563;52.416;13.548;2023-02-01T02:27:08;100639.41;;;3.29;100.00
68594;BME280;55563;52.416;13.548;2023-02-01T02:29:56;100636.19;;;3.34;100.00
68594;BME280;55563;52.416;13.548;2023-02-01T02:32:16;100641.66;;;3.26;100.00
68594;BME280;55563;52.416;13.548;2023-02-01T02:34:44;100639.78;;;3.33;100.00
68594;BME280;55563;52.416;13.548;2023-02-01T02:36:58;100639.00;;;3.32;100.00
68594;BME280;55563;52.416;13.548;2023-02-01T02:39:13;100634.06;;;3.24;100.00
68594;BME280;55563;52.416;13.548;2023-02-01T02:44:12;100639.25;;;3.24;100.00
68594;BME280;55563;52.416;13.548;2023-02-01T02:46:39;100634.22;;;3.29;100.00
68594;BME280;55563;52.416;13.548;2023-02-01T02:49:15;100635.19;;;3.35;100.00
68594;BME280;55563;52.416;13.548;2023-02-01T02:51:25;100637.19;;;3.33;100.00
68594;BME280;55563;52.416;13.548;2023-02-01T02:56:06;100625.19;;;3.32;100.00
68594;BME280;55563;52.416;13.548;2023-02-01T02:58:27;100632.78;;;3.33;100.00
68594;BME280;55563;52.416;13.548;2023-02-01T03:00:49;100630.03;;;3.28;100.00
68594;BME280;55563;52.416;13.548;2023-02-01T03:03:10;100630.22;;;3.27;100.00
68594;BME280;55563;52.416;13.548;2023-02-01T03:05:32;100625.47;;;3.24;100.00
68594;BME280;55563;52.416;13.548;2023-02-01T03:07:53;100642.03;;;3.29;100.00
68594;BME280;55563;52.416;13.548;2023-02-01T03:09:55;100620.59;;;3.34;100.00
68594;BME280;55563;52.416;13.548;2023-02-01T03:12:01;100615.75;;;3.44;100.00
68594;BME280;55563;52.416;13.548;2023-02-01T03:14:24;100617.81;;;3.35;100.00
68594;BME280;55563;52.416;13.548;2023-02-01T03:16:46;100606.63;;;3.35;100.00
68594;BME280;55563;52.416;13.548;2023-02-01T03:19:01;100610.00;;;3.35;100.00
68594;BME280;55563;52.416;13.548;2023-02-01T03:21:09;100606.78;;;3.40;100.00
68594;BME280;55563;52.416;13.548;2023-02-01T03:23:13;100602.50;;;3.45;100.00
68594;BME280;55563;52.416;13.548;2023-02-01T03:25:21;100589.91;;;3.49;100.00
68594;BME280;55563;52.416;13.548;2023-02-01T03:28:25;100596.31;;;3.46;100.00
68594;BME280;55563;52.416;13.548;2023-02-01T03:30:42;100599.16;;;3.45;100.00
68594;BME280;55563;52.416;13.548;2023-02-01T03:32:47;100592.06;;;3.52;100.00
68594;BME280;55563;52.416;13.548;2023-02-01T03:35:11;100584.13;;;3.47;100.00
68594;BME280;55563;52.416;13.548;2023-02-01T03:37:26;100578.78;;;3.42;100.00
68594;BME280;55563;52.416;13.548;2023-02-01T03:41:43;100574.97;;;3.44;100.00
68594;BME280;55563;52.416;13.548;2023-02-01T03:43:54;100576.78;;;3.44;100.00
68594;BME280;55563;52.416;13.548;2023-02-01T03:46:01;100576.97;;;3.42;100.00
68594;BME280;55563;52.416;13.548;2023-02-01T03:48:04;100574.97;;;3.44;100.00
68594;BME280;55563;52.416;13.548;2023-02-01T03:50:08;100563.78;;;3.44;100.00
68594;BME280;55563;52.416;13.548;2023-02-01T03:52:14;100577.81;;;3.36;100.00
68594;BME280;55563;52.416;13.548;2023-02-01T03:54:17;100582.00;;;3.37;100.00
68594;BME280;55563;52.416;13.548;2023-02-01T03:56:25;100583.41;;;3.40;100.00
68594;BME280;55563;52.416;13.548;2023-02-01T03:58:28;100567.66;;;3.35;100.00
68594;BME280;55563;52.416;13.548;2023-02-01T04:00:29;100569.34;;;3.47;100.00
68594;BME280;55563;52.416;13.548;2023-02-01T04:02:32;100573.38;;;3.43;100.00
68594;BME280;55563;52.416;13.548;2023-02-01T04:04:34;100572.38;;;3.44;100.00
68594;BME280;55563;52.416;13.548;2023-02-01T04:06:37;100577.34;;;3.46;100.00
68594;BME280;55563;52.416;13.548;2023-02-01T04:08:39;100576.34;;;3.47;100.00
68594;BME280;55563;52.416;13.548;2023-02-01T04:10:39;100574.97;;;3.44;100.00
68594;BME280;55563;52.416;13.548;2023-02-01T04:12:40;100575.94;;;3.50;100.00
68594;BME280;55563;52.416;13.548;2023-02-01T04:14:41;100578.66;;;3.55;100.00
68594;BME280;55563;52.416;13.548;2023-02-01T04:16:42;100573.69;;;3.54;100.00
68594;BME280;55563;52.416;13.548;2023-02-01T04:18:46;100568.84;;;3.57;100.00
68594;BME280;55563;52.416;13.548;2023-02-01T04:20:46;100571.44;;;3.57;100.00
68594;BME280;55563;52.416;13.548;2023-02-01T04:22:47;100572.84;;;3.60;100.00
68594;BME280;55563;52.416;13.548;2023-02-01T04:24:48;100575.44;;;3.60;100.00
68594;BME280;55563;52.416;13.548;2023-02-01T04:26:49;100577.41;;;3.64;100.00
68594;BME280;55563;52.416;13.548;2023-02-01T04:28:49;100572.59;;;3.61;100.00
68594;BME280;55563;52.416;13.548;2023-02-01T04:30:51;100573.34;;;3.68;100.00
68594;BME280;55563;52.416;13.548;2023-02-01T04:32:52;100582.88;;;3.74;100.00
68594;BME280;55563;52.416;13.548;2023-02-01T04:34:52;100574.16;;;3.69;100.00
68594;BME280;55563;52.416;13.548;2023-02-01T04:36:53;100577.56;;;3.69;100.00
68594;BME280;55563;52.416;13.548;2023-02-01T04:38:54;100576.59;;;3.64;100.00
68594;BME280;55563;52.416;13.548;2023-02-01T04:40:54;100565.06;;;3.78;100.00
68594;BME280;55563;52.416;13.548;2023-02-01T04:42:55;100565.88;;;3.78;100.00
68594;BME280;55563;52.416;13.548;2023-02-01T04:44:56;100565.63;;;3.80;100.00
68594;BME280;55563;52.416;13.548;2023-02-01T04:46:57;100563.81;;;3.80;100.00
68594;BME280;55563;52.416;13.548;2023-02-01T04:48:57;100567.66;;;3.78;100.00
68594;BME280;55563;52.416;13.548;2023-02-01T04:50:58;100575.22;;;3.79;100.00
68594;BME280;55563;52.416;13.548;2023-02-01T04:52:59;100568.22;;;3.80;100.00
68594;BME280;55563;52.416;13.548;2023-02-01T04:54:59;100570.19;;;3.84;100.00
68594;BME280;55563;52.416;13.548;2023-02-01T04:57:02;100567.72;;;3.89;100.00
68594;BME280;55563;52.416;13.548;2023-02-01T04:59:03;100563.34;;;3.90;100.00
68594;BME280;55563;52.416;13.548;2023-02-01T05:01:06;100563.78;;;3.87;100.00
68594;BME280;55563;52.416;13.548;2023-02-01T05:03:07;100562.97;;;3.86;100.00
68594;BME280;55563;52.416;13.548;2023-02-01T05:05:08;100557.34;;;3.89;100.00
68594;BME280;55563;52.416;13.548;2023-02-01T05:07:08;100560.72;;;3.90;100.00
68594;BME280;55563;52.416;13.548;2023-02-01T05:09:09;100559.72;;;3.91;100.00
68594;BME280;55563;52.416;13.548;2023-02-01T05:11:10;100550.91;;;3.92;100.00
68594;BME280;55563;52.416;13.548;2023-02-01T05:13:30;100556.28;;;3.97;100.00
68594;BME280;55563;52.416;13.548;2023-02-01T05:15:51;100550.41;;;4.02;100.00
68594;BME280;55563;52.416;13.548;2023-02-01T05:17:51;100547.56;;;4.03;100.00
68594;BME280;55563;52.416;13.548;2023-02-01T05:19:52;100537.41;;;4.02;100.00
68594;BME280;55563;52.416;13.548;2023-02-01T05:21:53;100544.56;;;4.06;100.00
68594;BME280;55563;52.416;13.548;2023-02-01T05:23:54;100542.38;;;4.03;100.00
68594;BME280;55563;52.416;13.548;2023-02-01T05:26:09;100536.97;;;4.05;100.00
68594;BME280;55563;52.416;13.548;2023-02-01T05:28:10;100538.56;;;4.06;100.00
68594;BME280;55563;52.416;13.548;2023-02-01T05:30:11;100530.75;;;4.06;100.00
68594;BME280;55563;52.416;13.548;2023-02-01T05:32:12;100536.53;;;4.08;100.00
68594;BME280;55563;52.416;13.548;2023-02-01T05:34:13;100531.03;;;4.16;100.00
68594;BME280;55563;52.416;13.548;2023-02-01T05:36:14;100536.91;;;4.11;100.00
68594;BME280;55563;52.416;13.548;2023-02-01T05:38:15;100530.69;;;4.12;100.00
68594;BME280;55563;52.416;13.548;2023-02-01T05:40:16;100527.94;;;4.07;100.00
68594;BME280;55563;52.416;13.548;2023-02-01T05:42:16;100532.91;;;4.09;100.00
68594;BME280;55563;52.416;13.548;2023-02-01T05:44:17;100530.91;;;4.11;100.00
68594;BME280;55563;52.416;13.548;2023-02-01T05:46:18;100530.09;;;4.10;100.00
68594;BME280;55563;52.416;13.548;2023-02-01T05:48:19;100520.72;;;4.09;100.00
68594;BME280;55563;52.416;13.548;2023-02-01T05:50:20;100526.13;;;4.08;100.00
68594;BME280;55563;52.416;13.548;2023-02-01T05:52:20;100525.13;;;4.09;100.00
68594;BME280;55563;52.416;13.548;2023-02-01T05:54:21;100525.91;;;4.09;100.00
68594;BME280;55563;52.416;13.548;2023-02-01T05:56:22;100524.69;;;4.12;100.00
68594;BME280;55563;52.416;13.548;2023-02-01T05:58:22;100514.34;;;4.23;100.00
68594;BME280;55563;52.416;13.548;2023-02-01T06:00:24;100527.19;;;4.18;100.00
68594;BME280;55563;52.416;13.548;2023-02-01T06:02:25;100515.19;;;4.17;100.00
68594;BME280;55563;52.416;13.548;2023-02-01T06:04:25;100521.06;;;4.13;100.00
68594;BME280;55563;52.416;13.548;2023-02-01T06:06:26;100507.41;;;4.17;100.00
68594;BME280;55563;52.416;13.548;2023-02-01T06:08:27;100513.84;;;4.15;100.00
68594;BME280;55563;52.416;13.548;2023-02-01T06:10:28;100513.50;;;4.11;100.00
68594;BME280;55563;52.416;13.548;2023-02-01T06:12:29;100510.25;;;4.16;100.00
68594;BME280;55563;52.416;13.548;2023-02-01T06:14:30;100512.84;;;4.16;100.00
68594;BME280;55563;52.416;13.548;2023-02-01T06:16:31;100506.63;;;4.17;100.00
68594;BME280;55563;52.416;13.548;2023-02-01T06:18:32;100505.84;;;4.16;100.00
68594;BME280;55563;52.416;13.548;2023-02-01T06:20:35;100503.44;;;4.15;100.00
68594;BME280;55563;52.416;13.548;2023-02-01T06:22:35;100496.56;;;4.20;100.00
68594;BME280;55563;52.416;13.548;2023-02-01T06:24:36;100500.97;;;4.20;100.00
68594;BME280;55563;52.416;13.548;2023-02-01T06:26:37;100507.06;;;4.14;100.00
68594;BME280;55563;52.416;13.548;2023-02-01T06:28:39;100495.50;;;4.10;100.00
68594;BME280;55563;52.416;13.548;2023-02-01T06:30:48;100506.91;;;4.09;100.00
68594;BME280;55563;52.416;13.548;2023-02-01T06:32:53;100504.09;;;4.10;100.00
68594;BME280;55563;52.416;13.548;2023-02-01T06:34:54;100508.94;;;4.07;100.00
68594;BME280;55563;52.416;13.548;2023-02-01T06:36:56;100502.59;;;4.03;100.00
68594;BME280;55563;52.416;13.548;2023-02-01T06:39:01;100508.00;;;4.01;100.00
68594;BME280;55563;52.416;13.548;2023-02-01T06:41:04;100504.41;;;4.02;100.00
68594;BME280;55563;52.416;13.548;2023-02-01T06:43:06;100501.81;;;4.02;100.00
68594;BME280;55563;52.416;13.548;2023-02-01T06:45:07;100510.81;;;4.00;100.00
68594;BME280;55563;52.416;13.548;2023-02-01T06:47:08;100507.22;;;4.01;100.00
68594;BME280;55563;52.416;13.548;2023-02-01T06:49:09;100504.63;;;4.01;100.00
68594;BME280;55563;52.416;13.548;2023-02-01T06:51:26;100500.06;;;3.96;100.00
68594;BME280;55563;52.416;13.548;2023-02-01T06:53:28;100500.63;;;3.98;100.00
68594;BME280;55563;52.416;13.548;2023-02-01T06:55:29;100502.47;;;3.98;100.00
68594;BME280;55563;52.416;13.548;2023-02-01T06:57:29;100505.28;;;3.96;100.00
68594;BME280;55563;52.416;13.548;2023-02-01T06:59:33;100500.06;;;3.96;100.00
68594;BME280;55563;52.416;13.548;2023-02-01T07:01:34;100493.06;;;3.97;100.00
68594;BME280;55563;52.416;13.548;2023-02-01T07:03:35;100483.47;;;3.97;100.00
68594;BME280;55563;52.416;13.548;2023-02-01T07:05:36;100481.06;;;3.95;100.00
68594;BME280;55563;52.416;13.548;2023-02-01T07:07:37;100472.63;;;4.00;100.00
68594;BME280;55563;52.416;13.548;2023-02-01T07:09:37;100464.81;;;4.00;100.00
68594;BME280;55563;52.416;13.548;2023-02-01T07:11:38;100472.75;;;4.05;100.00
68594;BME280;55563;52.416;13.548;2023-02-01T07:13:43;100453.75;;;4.05;100.00
68594;BME280;55563;52.416;13.548;2023-02-01T07:15:44;100461.91;;;4.08;100.00
68594;BME280;55563;52.416;13.548;2023-02-01T07:17:48;100455.13;;;4.07;100.00
68594;BME280;55563;52.416;13.548;2023-02-01T07:19:49;100449.69;;;4.09;100.00
68594;BME280;55563;52.416;13.548;2023-02-01T07:21:50;100449.50;;;4.10;100.00
68594;BME280;55563;52.416;13.548;2023-02-01T07:23:50;100459.69;;;4.12;100.00
68594;BME280;55563;52.416;13.548;2023-02-01T07:25:56;100460.09;;;4.09;100.00
68594;BME280;55563;52.416;13.548;2023-02-01T07:27:57;100450.50;;;4.09;100.00
68594;BME280;55563;52.416;13.548;2023-02-01T07:29:58;100445.50;;;4.08;100.00
68594;BME280;55563;52.416;13.548;2023-02-01T07:32:02;100446.53;;;4.07;100.00
68594;BME280;55563;52.416;13.548;2023-02-01T07:34:03;100451.16;;;4.05;100.00
68594;BME280;55563;52.416;13.548;2023-02-01T07:36:05;100440.53;;;4.06;100.00
68594;BME280;55563;52.416;13.548;2023-02-01T07:38:06;100441.34;;;4.07;100.00
68594;BME280;55563;52.416;13.548;2023-02-01T07:40:08;100441.09;;;4.08;100.00
68594;BME280;55563;52.416;13.548;2023-02-01T07:42:09;100426.09;;;4.10;100.00
68594;BME280;55563;52.416;13.548;2023-02-01T07:44:09;100421.47;;;4.12;100.00
68594;BME280;55563;52.416;13.548;2023-02-01T07:46:10;100414.00;;;4.16;100.00
68594;BME280;55563;52.416;13.548;2023-02-01T07:48:11;100409.94;;;4.20;100.00
68594;BME280;55563;52.416;13.548;2023-02-01T07:50:12;100422.94;;;4.20;100.00
68594;BME280;55563;52.416;13.548;2023-02-01T07:52:13;100422.16;;;4.19;100.00
68594;BME280;55563;52.416;13.548;2023-02-01T07:54:16;100428.22;;;4.13;100.00
68594;BME280;55563;52.416;13.548;2023-02-01T07:56:19;100429.69;;;4.09;100.00
68594;BME280;55563;52.416;13.548;2023-02-01T07:58:20;100430.16;;;4.06;100.00
68594;BME280;55563;52.416;13.548;2023-02-01T08:00:21;100438.81;;;4.00;100.00
68594;BME280;55563;52.416;13.548;2023-02-01T08:02:42;100418.88;;;3.94;100.00
68594;BME280;55563;52.416;13.548;2023-02-01T08:04:43;100423.94;;;3.89;100.00
68594;BME280;55563;52.416;13.548;2023-02-01T08:06:43;100443.88;;;3.95;100.00
68594;BME280;55563;52.416;13.548;2023-02-01T08:08:45;100434.59;;;3.87;100.00
68594;BME280;55563;52.416;13.548;2023-02-01T08:10:47;100430.91;;;3.77;100.00
68594;BME280;55563;52.416;13.548;2023-02-01T08:12:48;100425.22;;;3.68;100.00
68594;BME280;55563;52.416;13.548;2023-02-01T08:14:49;100424.06;;;3.64;100.00
68594;BME280;55563;52.416;13.548;2023-02-01T08:16:49;100425.88;;;3.64;100.00
68594;BME280;55563;52.416;13.548;2023-02-01T08:18:51;100425.50;;;3.60;100.00
68594;BME280;55563;52.416;13.548;2023-02-01T08:20:52;100428.41;;;3.52;100.00
68594;BME280;55563;52.416;13.548;2023-02-01T08:22:53;100426.59;;;3.53;100.00
68594;BME280;55563;52.416;13.548;2023-02-01T08:24:54;100431.19;;;3.50;100.00
68594;BME280;55563;52.416;13.548;2023-02-01T08:27:01;100426.94;;;3.56;100.00
68594;BME280;55563;52.416;13.548;2023-02-01T08:29:05;100433.78;;;3.50;100.00
68594;BME280;55563;52.416;13.548;2023-02-01T08:31:08;100439.88;;;3.44;100.00
68594;BME280;55563;52.416;13.548;2023-02-01T08:33:09;100430.28;;;3.45;100.00
68594;BME280;55563;52.416;13.548;2023-02-01T08:35:10;100441.09;;;3.42;100.00
68594;BME280;55563;52.416;13.548;2023-02-01T08:37:11;100431.50;;;3.42;100.00
68594;BME280;55563;52.416;13.548;2023-02-01T08:39:11;100434.53;;;3.39;100.00
68594;BME280;55563;52.416;13.548;2023-02-01T08:41:15;100434.09;;;3.42;100.00
68594;BME280;55563;52.416;13.548;2023-02-01T08:43:18;100441.31;;;3.40;100.00
68594;BME280;55563;52.416;13.548;2023-02-01T08:45:22;100431.50;;;3.42;100.00
68594;BME280;55563;52.416;13.548;2023-02-01T08:47:24;100433.75;;;3.39;100.00
68594;BME280;55563;52.416;13.548;2023-02-01T08:49:24;100429.69;;;3.43;100.00
68594;BME280;55563;52.416;13.548;2023-02-01T08:51:25;100435.69;;;3.43;100.00
68594;BME280;55563;52.416;13.548;2023-02-01T08:53:26;100443.47;;;3.43;100.00
68594;BME280;55563;52.416;13.548;2023-02-01T08:55:26;100446.44;;;3.47;100.00
68594;BME280;55563;52.416;13.548;2023-02-01T08:57:28;100439.44;;;3.47;100.00
68594;BME280;55563;52.416;13.548;2023-02-01T08:59:29;100449.25;;;3.45;100.00
68594;BME280;55563;52.416;13.548;2023-02-01T09:01:29;100449.81;;;3.47;100.00
68594;BME280;55563;52.416;13.548;2023-02-01T09:03:30;100454.59;;;3.50;100.00
68594;BME280;55563;52.416;13.548;2023-02-01T09:05:31;100462.38;;;3.50;100.00
68594;BME280;55563;52.416;13.548;2023-02-01T09:07:33;100465.13;;;3.56;100.00
68594;BME280;55563;52.416;13.548;2023-02-01T09:09:34;100463.19;;;3.51;100.00
68594;BME280;55563;52.416;13.548;2023-02-01T09:11:35;100468.16;;;3.53;100.00
68594;BME280;55563;52.416;13.548;2023-02-01T09:13:35;100472.41;;;3.47;100.00
68594;BME280;55563;52.416;13.548;2023-02-01T09:15:38;100473.56;;;3.51;100.00
68594;BME280;55563;52.416;13.548;2023-02-01T09:17:39;100481.38;;;3.51;100.00
68594;BME280;55563;52.416;13.548;2023-02-01T09:19:42;100469.41;;;3.50;100.00
68594;BME280;55563;52.416;13.548;2023-02-01T09:21:42;100498.19;;;3.48;100.00
68594;BME280;55563;52.416;13.548;2023-02-01T09:23:43;100486.94;;;3.55;100.00
68594;BME280;55563;52.416;13.548;2023-02-01T09:25:44;100489.44;;;3.61;100.00
68594;BME280;55563;52.416;13.548;2023-02-01T09:28:10;100497.59;;;3.65;100.00
68594;BME280;55563;52.416;13.548;2023-02-01T09:30:11;100492.41;;;3.65;100.00
68594;BME280;55563;52.416;13.548;2023-02-01T09:32:12;100507.00;;;3.66;100.00
68594;BME280;55563;52.416;13.548;2023-02-01T09:34:13;100497.41;;;3.66;100.00
68594;BME280;55563;52.416;13.548;2023-02-01T09:36:14;100511.63;;;4.00;100.00
68594;BME280;55563;52.416;13.548;2023-02-01T09:38:14;100518.25;;;4.14;100.00
68594;BME280;55563;52.416;13.548;2023-02-01T09:40:16;100508.00;;;4.01;100.00
68594;BME280;55563;52.416;13.548;2023-02-01T09:45:10;100506.72;;;4.40;100.00
68594;BME280;55563;52.416;13.548;2023-02-01T09:47:18;100514.69;;;4.27;100.00
68594;BME280;55563;52.416;13.548;2023-02-01T09:49:23;100520.00;;;4.20;100.00
68594;BME280;55563;52.416;13.548;2023-02-01T09:51:32;100510.06;;;4.29;100.00
68594;BME280;55563;52.416;13.548;2023-02-01T09:53:39;100524.53;;;4.25;100.00
68594;BME280;55563;52.416;13.548;2023-02-01T10:00:19;100533.06;;;3.95;100.00
68594;BME280;55563;52.416;13.548;2023-02-01T10:01:34;100530.63;;;4.01;100.00
68594;BME280;55563;52.416;13.548;2023-02-01T10:03:35;100528.38;;;4.04;100.00
68594;BME280;55563;52.416;13.548;2023-02-01T10:08:03;100532.41;;;4.00;100.00
68594;BME280;55563;52.416;13.548;2023-02-01T10:10:17;100532.78;;;4.04;100.00
68594;BME280;55563;52.416;13.548;2023-02-01T10:19:29;100540.06;;;3.95;100.00
68594;BME280;55563;52.416;13.548;2023-02-01T10:24:28;100542.38;;;3.85;100.00
68594;BME280;55563;52.416;13.548;2023-02-01T10:26:37;100546.00;;;3.84;100.00
68594;BME280;55563;52.416;13.548;2023-02-01T10:28:51;100551.41;;;3.82;100.00
68594;BME280;55563;52.416;13.548;2023-02-01T10:31:24;100545.56;;;3.87;100.00
68594;BME280;55563;52.416;13.548;2023-02-01T10:35:54;100549.69;;;3.94;100.00
68594;BME280;55563;52.416;13.548;2023-02-01T10:38:28;100552.88;;;3.97;100.00
68594;BME280;55563;52.416;13.548;2023-02-01T10:40:37;100558.56;;;4.05;100.00
68594;BME280;55563;52.416;13.548;2023-02-01T10:43:05;100568.75;;;4.07;100.00
68594;BME280;55563;52.416;13.548;2023-02-01T10:45:18;100557.72;;;4.11;100.00
68594;BME280;55563;52.416;13.548;2023-02-01T10:47:41;100560.81;;;4.20;100.00
68594;BME280;55563;52.416;13.548;2023-02-01T10:50:11;100551.63;;;4.17;100.00
68594;BME280;55563;52.416;13.548;2023-02-01T10:52:51;100548.31;;;4.10;100.00
68594;BME280;55563;52.416;13.548;2023-02-01T10:54:38;100556.13;;;4.10;100.00
68594;BME280;55563;52.416;13.548;2023-02-01T10:56:39;100546.94;;;4.08;100.00
68594;BME280;55563;52.416;13.548;2023-02-01T10:58:46;100564.28;;;3.95;100.00
68594;BME280;55563;52.416;13.548;2023-02-01T11:00:53;100561.72;;;3.89;100.00
68594;BME280;55563;52.416;13.548;2023-02-01T11:02:54;100563.56;;;3.88;100.00
68594;BME280;55563;52.416;13.548;2023-02-01T11:05:01;100564.56;;;3.87;100.00
68594;BME280;55563;52.416;13.548;2023-02-01T11:07:13;100555.63;;;3.83;100.00
68594;BME280;55563;52.416;13.548;2023-02-01T11:09:19;100551.78;;;3.86;100.00
68594;BME280;55563;52.416;13.548;2023-02-01T11:11:21;100553.56;;;3.85;100.00
68594;BME280;55563;52.416;13.548;2023-02-01T11:13:29;100548.97;;;3.87;100.00
68594;BME280;55563;52.416;13.548;2023-02-01T11:15:30;100539.38;;;3.88;100.00
68594;BME280;55563;52.416;13.548;2023-02-01T11:17:35;100533.88;;;3.96;100.00